createdAt,value
2019-04-06T00:01:29.462Z,8.67
2019-04-06T00:06:32.287Z,7.63
2019-04-06T00:11:44.096Z,8.87
2019-04-06T00:16:46.924Z,8.80
2019-04-06T00:21:49.740Z,8.80
2019-04-06T00:26:53.449Z,8.30
2019-04-06T00:32:03.992Z,8.63
2019-04-06T00:37:06.930Z,9.10
2019-04-06T00:42:09.700Z,7.90
2019-04-06T00:47:12.548Z,7.00
2019-04-06T00:52:15.309Z,7.63
2019-04-06T00:57:18.044Z,9.27
2019-04-06T01:02:20.962Z,7.80
2019-04-06T01:07:23.943Z,7.50
2019-04-06T01:12:26.691Z,7.93
2019-04-06T01:17:29.411Z,8.97
2019-04-06T01:22:32.238Z,8.00
2019-04-06T01:27:35.173Z,9.43
2019-04-06T01:32:37.869Z,7.70
2019-04-06T01:37:40.633Z,7.50
2019-04-06T01:42:43.405Z,9.00
2019-04-06T01:47:46.234Z,7.73
2019-04-06T01:52:51.479Z,8.20
2019-04-06T01:57:54.221Z,7.67
2019-04-06T02:02:57.103Z,7.30
2019-04-06T02:08:00.364Z,7.83
2019-04-06T02:13:03.252Z,7.83
2019-04-06T02:18:06.273Z,7.70
2019-04-06T02:23:14.287Z,8.00
2019-04-06T02:28:17.215Z,7.00
2019-04-06T02:39:12.136Z,7.90
2019-04-06T02:44:14.907Z,6.97
2019-04-06T02:49:19.874Z,6.97
2019-04-06T02:54:22.752Z,7.20
2019-04-06T02:59:25.498Z,8.37
2019-04-06T03:04:28.277Z,7.03
2019-04-06T03:09:31.035Z,7.47
2019-04-06T03:14:33.871Z,6.97
2019-04-06T03:19:40.664Z,7.70
2019-04-06T03:24:43.374Z,7.37
2019-04-06T03:29:57.596Z,8.67
2019-04-06T03:34:51.206Z,7.57
2019-04-06T03:39:54.209Z,7.40
2019-04-06T03:44:56.999Z,8.30
2019-04-06T03:49:59.792Z,7.13
2019-04-06T03:55:04.050Z,8.80
2019-04-06T04:00:07.574Z,7.97
2019-04-06T04:05:10.502Z,8.10
2019-04-06T04:10:31.297Z,7.70
2019-04-06T04:15:34.126Z,7.83
2019-04-06T04:20:37.073Z,7.93
2019-04-06T04:25:40.242Z,8.13
2019-04-06T04:30:43.065Z,7.37
2019-04-06T04:35:45.993Z,8.90
2019-04-06T04:40:48.943Z,8.10
2019-04-06T04:45:51.720Z,8.07
2019-04-06T04:50:54.522Z,8.37
2019-04-06T04:55:57.255Z,8.30
2019-04-06T05:01:00.092Z,9.30
2019-04-06T05:06:02.922Z,8.20
2019-04-06T05:11:05.728Z,8.33
2019-04-06T05:16:10.049Z,8.37
2019-04-06T05:21:13.148Z,8.53
2019-04-06T05:26:37.531Z,8.53
2019-04-06T05:31:35.716Z,8.43
2019-04-06T05:36:38.625Z,7.97
2019-04-06T05:41:41.523Z,8.83
2019-04-06T05:46:44.316Z,9.20
2019-04-06T05:51:47.275Z,8.80
2019-04-06T05:56:50.021Z,8.67
2019-04-06T06:01:52.785Z,9.03
2019-04-06T06:06:55.507Z,8.03
2019-04-06T06:11:58.429Z,8.87
2019-04-06T06:17:01.163Z,8.23
2019-04-06T06:22:04.091Z,9.10
2019-04-06T06:27:06.858Z,8.67
2019-04-06T06:32:10.730Z,8.03
2019-04-06T06:37:13.516Z,8.40
2019-04-06T06:42:16.389Z,8.10
2019-04-06T06:47:19.139Z,7.93
2019-04-06T06:52:22.007Z,8.17
2019-04-06T06:57:25.101Z,8.27
2019-04-06T07:02:31.837Z,8.10
2019-04-06T07:07:34.790Z,8.90
2019-04-06T07:12:37.569Z,8.87
2019-04-06T07:17:40.388Z,8.27
2019-04-06T07:22:43.338Z,8.40
2019-04-06T07:27:46.090Z,8.60
2019-04-06T07:32:49.177Z,8.57
2019-04-06T07:37:52.043Z,8.97
2019-04-06T07:42:55.588Z,8.27
2019-04-06T07:47:58.305Z,8.67
2019-04-06T07:53:01.023Z,8.93
2019-04-06T07:58:03.747Z,8.37
2019-04-06T08:03:06.544Z,9.20
2019-04-06T08:08:09.338Z,9.73
2019-04-06T08:13:12.237Z,9.67
2019-04-06T08:18:15.030Z,9.83
2019-04-06T08:23:17.905Z,9.10
2019-04-06T08:28:20.659Z,8.53
2019-04-06T08:33:23.428Z,9.93
2019-04-06T08:38:26.285Z,9.00
2019-04-06T08:43:29.066Z,9.23
2019-04-06T08:48:31.903Z,9.33
2019-04-06T08:53:34.709Z,8.67
2019-04-06T08:58:37.480Z,8.57
2019-04-06T09:03:40.648Z,9.20
2019-04-06T09:08:43.421Z,9.17
2019-04-06T09:13:46.185Z,8.90
2019-04-06T09:18:49.477Z,9.20
2019-04-06T09:23:52.703Z,9.70
2019-04-06T09:28:55.430Z,8.60
2019-04-06T09:33:58.193Z,9.93
2019-04-06T09:39:01.020Z,9.70
2019-04-06T09:44:05.724Z,10.50
2019-04-06T09:49:46.149Z,10.80
2019-04-06T09:55:07.271Z,10.93
2019-04-06T10:00:29.912Z,10.67
2019-04-06T10:05:50.786Z,10.57
2019-04-06T10:11:11.808Z,10.23
2019-04-06T10:16:36.978Z,11.00
2019-04-06T10:21:59.261Z,10.57
2019-04-06T10:27:21.749Z,9.80
2019-04-06T10:32:40.284Z,10.23
2019-04-06T10:37:56.342Z,10.18
2019-04-06T10:43:07.068Z,10.73
2019-04-06T10:48:24.615Z,10.55
2019-04-06T10:53:54.293Z,10.48
2019-04-06T10:59:22.317Z,10.70
2019-04-06T11:04:44.676Z,9.50
2019-04-06T11:10:25.040Z,10.95
2019-04-06T11:15:49.176Z,10.75
2019-04-06T11:21:17.456Z,10.75
2019-04-06T11:26:45.990Z,10.03
2019-04-06T11:31:58.511Z,11.10
2019-04-06T11:37:14.093Z,11.80
2019-04-06T11:42:35.276Z,10.75
2019-04-06T11:47:57.608Z,10.65
2019-04-06T11:53:23.178Z,11.80
2019-04-06T11:58:46.394Z,11.65
2019-04-06T12:03:58.566Z,11.80
2019-04-06T12:09:20.857Z,12.65
2019-04-06T12:14:36.794Z,11.78
2019-04-06T12:19:47.884Z,10.80
2019-04-06T12:25:13.337Z,11.20
2019-04-06T12:30:47.584Z,10.93
2019-04-06T12:36:10.637Z,12.05
2019-04-06T12:41:22.678Z,11.83
2019-04-06T12:46:54.056Z,11.53
2019-04-06T12:52:18.647Z,10.63
2019-04-06T12:57:49.939Z,10.23
2019-04-06T13:03:20.688Z,10.48
2019-04-06T13:08:28.745Z,10.10
2019-04-06T13:13:49.768Z,11.22
2019-04-06T13:19:08.598Z,10.25
2019-04-06T13:24:31.138Z,11.60
2019-04-06T13:30:02.210Z,10.18
2019-04-06T13:35:23.445Z,10.70
2019-04-06T13:40:41.807Z,11.85
2019-04-06T13:46:11.225Z,9.88
2019-04-06T13:51:36.234Z,9.73
2019-04-06T13:56:50.749Z,9.70
2019-04-06T14:02:04.103Z,10.40
2019-04-06T14:07:25.820Z,9.88
2019-04-06T14:12:47.234Z,10.05
2019-04-06T14:18:09.327Z,9.70
2019-04-06T14:23:34.976Z,9.53
2019-04-06T14:28:48.385Z,9.63
2019-04-06T14:34:07.122Z,10.53
2019-04-06T14:39:28.214Z,10.78
2019-04-06T14:44:46.369Z,8.93
2019-04-06T14:50:23.696Z,10.08
2019-04-06T14:55:59.493Z,10.35
2019-04-06T15:01:38.347Z,11.40
2019-04-06T15:07:12.352Z,11.18
2019-04-06T15:12:32.320Z,12.40
2019-04-06T15:17:54.891Z,11.63
2019-04-06T15:23:36.828Z,12.23
2019-04-06T15:29:11.745Z,12.20
2019-04-06T15:34:29.262Z,10.90
2019-04-06T15:39:52.467Z,12.63
2019-04-06T15:45:12.345Z,12.18
2019-04-06T15:50:33.607Z,12.68
2019-04-06T15:55:54.786Z,12.53
2019-04-06T16:01:29.239Z,12.33
2019-04-06T16:06:47.817Z,12.33
2019-04-06T16:11:58.635Z,12.25
2019-04-06T16:22:53.476Z,11.97
2019-04-06T16:28:19.534Z,12.75
2019-04-06T16:33:45.133Z,12.30
2019-04-06T16:39:13.106Z,11.97
2019-04-06T16:44:44.584Z,12.90
2019-04-06T16:50:00.586Z,13.10
2019-04-06T16:55:26.451Z,12.35
2019-04-06T17:00:57.625Z,11.48
2019-04-06T17:06:08.303Z,11.65
2019-04-06T17:11:36.973Z,11.50
2019-04-06T17:17:06.255Z,11.65
2019-04-06T17:22:31.348Z,13.08
2019-04-06T17:27:57.124Z,12.18
2019-04-06T17:33:17.639Z,11.50
2019-04-06T17:38:26.504Z,11.00
2019-04-06T17:43:47.766Z,12.05
2019-04-06T17:49:13.784Z,11.25
2019-04-06T17:54:36.739Z,11.57
2019-04-06T17:59:59.903Z,12.00
2019-04-06T18:05:29.160Z,12.23
2019-04-06T18:10:42.702Z,11.30
2019-04-06T18:15:46.124Z,12.28
2019-04-06T18:20:50.295Z,11.48
2019-04-06T18:25:53.263Z,11.63
2019-04-06T18:31:18.402Z,12.33
2019-04-06T18:36:24.755Z,12.43
2019-04-06T18:41:28.116Z,12.93
2019-04-06T18:46:31.028Z,12.60
2019-04-06T18:51:34.019Z,11.73
2019-04-06T18:56:36.879Z,12.47
2019-04-06T19:01:39.691Z,12.43
2019-04-06T19:06:43.121Z,11.50
2019-04-06T19:11:54.475Z,12.43
2019-04-06T19:16:50.729Z,12.77
2019-04-06T19:21:53.594Z,11.83
2019-04-06T19:26:56.544Z,12.60
2019-04-06T19:31:59.306Z,13.25
2019-04-06T19:37:02.664Z,11.73
2019-04-06T19:42:06.424Z,12.33
2019-04-06T19:47:09.232Z,12.93
2019-04-06T19:52:12.385Z,12.20
2019-04-06T19:57:15.920Z,13.33
2019-04-06T20:02:18.653Z,12.93
2019-04-06T20:07:21.761Z,13.70
2019-04-06T20:12:24.861Z,12.93
2019-04-06T20:17:27.715Z,13.07
2019-04-06T20:22:30.690Z,14.43
2019-04-06T20:27:33.509Z,12.23
2019-04-06T20:32:36.351Z,12.53
2019-04-06T20:37:42.701Z,12.53
2019-04-06T20:42:46.165Z,13.40
2019-04-06T20:47:48.997Z,14.67
2019-04-06T20:52:52.565Z,13.53
2019-04-06T20:57:55.459Z,13.47
2019-04-06T21:03:04.939Z,14.00
2019-04-06T21:08:29.711Z,13.63
2019-04-06T21:19:35.078Z,12.77
2019-04-06T21:24:37.894Z,13.17
2019-04-06T21:29:40.837Z,12.47
2019-04-06T21:34:44.839Z,11.97
2019-04-06T21:39:47.644Z,13.73
2019-04-06T21:44:50.557Z,13.23
2019-04-06T21:49:53.329Z,13.70
2019-04-06T21:54:56.071Z,14.20
2019-04-06T21:59:59.066Z,14.87
2019-04-06T22:05:02.994Z,14.73
2019-04-06T22:10:06.310Z,14.10
2019-04-06T22:15:10.478Z,15.90
2019-04-06T22:20:13.991Z,15.57
2019-04-06T22:25:16.775Z,14.20
2019-04-06T22:30:19.869Z,15.57
2019-04-06T22:35:23.151Z,15.40
2019-04-06T22:40:25.913Z,14.23
2019-04-06T22:45:29.859Z,14.10
2019-04-06T22:50:32.721Z,12.53
2019-04-06T22:55:35.575Z,11.07
2019-04-06T23:00:42.415Z,10.73
2019-04-06T23:05:48.169Z,10.33
2019-04-06T23:10:50.904Z,10.00
2019-04-06T23:15:54.216Z,8.80
2019-04-06T23:20:58.745Z,9.13
2019-04-06T23:26:03.089Z,10.73
2019-04-06T23:31:06.203Z,9.70
2019-04-06T23:36:09.167Z,9.00
2019-04-06T23:41:11.911Z,8.40
2019-04-06T23:46:15.777Z,7.53
2019-04-06T23:51:18.820Z,8.57
2019-04-06T23:56:21.628Z,8.23
